createdAt,value
2017-08-10T00:00:00.981Z,18.3
2017-08-10T00:01:03.427Z,18.3
2017-08-10T00:02:05.883Z,18.3
2017-08-10T00:03:08.318Z,18.3
2017-08-10T00:04:11.120Z,18.3
2017-08-10T00:05:13.565Z,18.2
2017-08-10T00:06:16.070Z,18.2
2017-08-10T00:07:18.872Z,18.2
2017-08-10T00:08:21.326Z,18.2
2017-08-10T00:09:23.786Z,18.2
2017-08-10T00:10:26.570Z,18.2
2017-08-10T00:11:29.030Z,18.2
2017-08-10T00:12:31.483Z,18.2
2017-08-10T00:13:34.285Z,18.2
2017-08-10T00:14:36.729Z,18.2
2017-08-10T00:15:39.173Z,18.2
2017-08-10T00:16:41.644Z,18.2
2017-08-10T00:17:44.089Z,18.2
2017-08-10T00:18:46.539Z,18.2
2017-08-10T00:19:49.662Z,18.2
2017-08-10T00:20:52.466Z,18.2
2017-08-10T00:21:55.247Z,18.2
2017-08-10T00:22:58.047Z,18.2
2017-08-10T00:24:00.492Z,18.2
2017-08-10T00:25:03.266Z,18.2
2017-08-10T00:26:05.718Z,18.2
2017-08-10T00:27:08.161Z,18.2
2017-08-10T00:28:10.621Z,18.2
2017-08-10T00:29:13.421Z,18.2
2017-08-10T00:30:16.545Z,18.2
2017-08-10T00:31:18.996Z,18.2
2017-08-10T00:32:21.452Z,18.3
2017-08-10T00:33:23.899Z,18.2
2017-08-10T00:34:26.346Z,18.3
2017-08-10T00:35:28.800Z,18.3
2017-08-10T00:36:31.253Z,18.2
2017-08-10T00:37:34.398Z,18.2
2017-08-10T00:38:37.201Z,18.2
2017-08-10T00:39:39.651Z,18.1
2017-08-10T00:40:42.444Z,18.1
2017-08-10T00:41:44.892Z,18
2017-08-10T00:42:47.344Z,18
2017-08-10T00:43:50.820Z,18
2017-08-10T00:44:53.286Z,18
2017-08-10T00:45:55.740Z,18
2017-08-10T00:46:58.191Z,17.9
2017-08-10T00:48:00.639Z,17.9
2017-08-10T00:49:03.776Z,17.9
2017-08-10T00:50:06.209Z,17.9
2017-08-10T00:51:08.668Z,17.9
2017-08-10T00:52:11.114Z,17.9
2017-08-10T00:53:13.564Z,17.9
2017-08-10T00:54:16.361Z,17.9
2017-08-10T00:55:18.821Z,17.9
2017-08-10T00:56:21.252Z,17.9
2017-08-10T00:57:24.051Z,17.9
2017-08-10T00:58:27.165Z,17.9
2017-08-10T00:59:29.955Z,17.9
2017-08-10T01:00:32.746Z,17.9
2017-08-10T01:01:35.532Z,17.9
2017-08-10T01:02:37.975Z,17.9
2017-08-10T01:03:41.115Z,17.9
2017-08-10T01:04:43.899Z,17.9
2017-08-10T01:05:46.376Z,17.9
2017-08-10T01:06:49.221Z,17.9
2017-08-10T01:07:51.667Z,17.9
2017-08-10T01:08:54.123Z,17.9
2017-08-10T01:09:56.913Z,17.9
2017-08-10T01:10:59.695Z,17.9
2017-08-10T01:12:02.138Z,17.9
2017-08-10T01:13:04.923Z,17.9
2017-08-10T01:14:08.399Z,17.9
2017-08-10T01:15:11.210Z,17.8
2017-08-10T01:16:14.024Z,17.8
2017-08-10T01:17:16.803Z,17.8
2017-08-10T01:18:19.253Z,17.8
2017-08-10T01:19:21.700Z,17.8
2017-08-10T01:20:24.150Z,17.8
2017-08-10T01:21:26.616Z,17.8
2017-08-10T01:22:29.080Z,17.8
2017-08-10T01:23:31.528Z,17.7
2017-08-10T01:24:34.316Z,17.7
2017-08-10T01:25:37.106Z,17.7
2017-08-10T01:26:39.548Z,17.7
2017-08-10T01:27:41.995Z,17.7
2017-08-10T01:28:44.455Z,17.7
2017-08-10T01:29:46.906Z,17.7
2017-08-10T01:30:50.029Z,17.7
2017-08-10T01:31:52.872Z,17.7
2017-08-10T01:32:55.315Z,17.7
2017-08-10T01:33:58.099Z,17.7
2017-08-10T01:35:00.560Z,17.7
2017-08-10T01:36:03.363Z,17.7
2017-08-10T01:37:05.828Z,17.7
2017-08-10T01:38:08.614Z,17.7
2017-08-10T01:39:11.052Z,17.7
2017-08-10T01:40:13.511Z,17.7
2017-08-10T01:41:15.980Z,17.7
2017-08-10T01:42:18.422Z,17.7
2017-08-10T01:43:20.860Z,17.7
2017-08-10T01:44:23.350Z,17.7
2017-08-10T01:45:26.159Z,17.7
2017-08-10T01:46:28.598Z,17.8
2017-08-10T01:47:31.388Z,17.7
2017-08-10T01:48:34.857Z,17.8
2017-08-10T01:49:37.672Z,17.8
2017-08-10T01:50:40.138Z,17.8
2017-08-10T01:51:42.926Z,17.8
2017-08-10T01:52:45.375Z,17.8
2017-08-10T01:53:47.824Z,17.8
2017-08-10T01:54:50.630Z,17.8
2017-08-10T01:55:53.067Z,17.8
2017-08-10T01:56:55.512Z,17.8
2017-08-10T01:57:57.965Z,17.8
2017-08-10T01:59:00.441Z,17.8
2017-08-10T02:00:03.232Z,17.8
2017-08-10T02:01:05.681Z,17.8
2017-08-10T02:02:08.142Z,17.8
2017-08-10T02:03:11.276Z,17.8
2017-08-10T02:04:13.728Z,17.9
2017-08-10T02:05:16.165Z,17.9
2017-08-10T02:06:18.610Z,17.9
2017-08-10T02:07:21.046Z,17.9
2017-08-10T02:08:23.515Z,17.9
2017-08-10T02:09:26.307Z,17.9
2017-08-10T02:10:28.753Z,17.9
2017-08-10T02:11:31.198Z,17.9
2017-08-10T02:12:33.996Z,17.9
2017-08-10T02:13:36.431Z,17.9
2017-08-10T02:14:39.243Z,17.9
2017-08-10T02:15:41.692Z,18
2017-08-10T02:16:44.468Z,18
2017-08-10T02:17:46.929Z,18
2017-08-10T02:18:49.743Z,18
2017-08-10T02:19:52.547Z,18.1
2017-08-10T02:20:55.002Z,18.1
2017-08-10T02:21:57.441Z,18.1
2017-08-10T02:22:59.888Z,18.1
2017-08-10T02:24:02.351Z,18.1
2017-08-10T02:25:05.133Z,18.1
2017-08-10T02:26:08.593Z,18.1
2017-08-10T02:27:11.040Z,18.1
2017-08-10T02:28:13.495Z,18.2
2017-08-10T02:29:15.944Z,18.2
2017-08-10T02:30:18.406Z,18.2
2017-08-10T02:31:20.849Z,18.2
2017-08-10T02:32:23.969Z,18.2
2017-08-10T02:33:26.440Z,18.2
2017-08-10T02:34:29.225Z,18.2
2017-08-10T02:35:31.691Z,18.2
2017-08-10T02:36:34.811Z,18.2
2017-08-10T02:37:37.280Z,18.2
2017-08-10T02:38:40.074Z,18.2
2017-08-10T02:39:42.856Z,18.2
2017-08-10T02:40:45.297Z,18.2
2017-08-10T02:41:47.745Z,18.2
2017-08-10T02:42:50.880Z,18.2
2017-08-10T02:43:53.333Z,18.2
2017-08-10T02:44:55.779Z,18.2
2017-08-10T02:45:58.913Z,18.2
2017-08-10T02:47:01.705Z,18.2
2017-08-10T02:48:04.859Z,18.1
2017-08-10T02:49:07.659Z,18.1
2017-08-10T02:50:10.107Z,18.1
2017-08-10T02:51:13.234Z,18.1
2017-08-10T02:52:16.023Z,18.1
2017-08-10T02:53:18.820Z,18.1
2017-08-10T02:54:21.629Z,18.1
2017-08-10T02:55:24.761Z,18.1
2017-08-10T02:56:27.226Z,18.1
2017-08-10T02:57:30.017Z,18.1
2017-08-10T02:58:32.498Z,18.1
2017-08-10T02:59:34.946Z,18.1
2017-08-10T03:00:37.400Z,18.1
2017-08-10T03:01:39.849Z,18.1
2017-08-10T03:02:42.978Z,18.1
2017-08-10T03:03:46.094Z,18.1
2017-08-10T03:04:49.583Z,18.1
2017-08-10T03:05:52.051Z,18.1
2017-08-10T03:06:54.853Z,18.1
2017-08-10T03:07:57.290Z,18.1
2017-08-10T03:09:00.083Z,18.1
2017-08-10T03:10:03.241Z,18.2
2017-08-10T03:11:06.039Z,18.1
2017-08-10T03:12:08.836Z,18.1
2017-08-10T03:13:11.298Z,18.1
2017-08-10T03:14:14.086Z,18.1
2017-08-10T03:15:16.542Z,18.1
2017-08-10T03:16:19.350Z,18.1
2017-08-10T03:17:21.790Z,18.1
2017-08-10T03:18:24.573Z,18.1
2017-08-10T03:19:27.046Z,18.1
2017-08-10T03:20:29.820Z,18.1
2017-08-10T03:21:32.589Z,18.1
2017-08-10T03:22:35.043Z,18.1
2017-08-10T03:23:38.186Z,18.1
2017-08-10T03:24:40.686Z,18.1
2017-08-10T03:25:44.174Z,18.1
2017-08-10T03:26:47.292Z,18
2017-08-10T03:27:50.078Z,18
2017-08-10T03:28:52.541Z,18
2017-08-10T03:29:55.318Z,18
2017-08-10T03:30:58.451Z,18
2017-08-10T03:32:01.601Z,18
2017-08-10T03:33:04.051Z,18
2017-08-10T03:34:07.190Z,18
2017-08-10T03:35:09.652Z,18
2017-08-10T03:36:12.094Z,18
2017-08-10T03:37:14.547Z,18.1
2017-08-10T03:38:17.332Z,18.1
2017-08-10T03:39:20.803Z,18.1
2017-08-10T03:40:23.266Z,18.1
2017-08-10T03:41:26.068Z,18.1
2017-08-10T03:42:28.855Z,18.1
2017-08-10T03:43:31.658Z,18.2
2017-08-10T03:44:34.099Z,18.2
2017-08-10T03:45:36.548Z,18.1
2017-08-10T03:46:38.987Z,18.1
2017-08-10T03:47:41.788Z,18.1
2017-08-10T03:48:44.566Z,18.1
2017-08-10T03:49:47.382Z,18.1
2017-08-10T03:50:50.184Z,18.1
2017-08-10T03:51:52.636Z,18.1
2017-08-10T03:52:55.078Z,18.1
2017-08-10T03:53:57.534Z,18.2
2017-08-10T03:54:59.994Z,18.2
2017-08-10T03:56:02.440Z,18.2
2017-08-10T03:57:04.888Z,18.2
2017-08-10T03:58:08.021Z,18.3
2017-08-10T03:59:10.467Z,18.3
2017-08-10T04:00:13.596Z,18.3
2017-08-10T04:01:16.048Z,18.3
2017-08-10T04:02:18.823Z,18.3
2017-08-10T04:03:21.273Z,18.3
2017-08-10T04:04:23.736Z,18.3
2017-08-10T04:05:26.523Z,18.3
2017-08-10T04:06:29.316Z,18.3
2017-08-10T04:07:31.754Z,18.3
2017-08-10T04:08:34.202Z,18.3
2017-08-10T04:09:36.660Z,18.3
2017-08-10T04:10:39.450Z,18.4
2017-08-10T04:11:42.235Z,18.4
2017-08-10T04:12:44.704Z,18.4
2017-08-10T04:13:47.154Z,18.4
2017-08-10T04:14:49.593Z,18.5
2017-08-10T04:15:52.392Z,18.5
2017-08-10T04:16:54.821Z,18.5
2017-08-10T04:17:57.954Z,18.5
2017-08-10T04:19:00.419Z,18.6
2017-08-10T04:20:03.212Z,18.5
2017-08-10T04:21:06.362Z,18.6
2017-08-10T04:22:08.808Z,18.5
2017-08-10T04:23:11.253Z,18.6
2017-08-10T04:24:14.057Z,18.6
2017-08-10T04:25:16.897Z,18.5
2017-08-10T04:26:19.353Z,18.5
2017-08-10T04:27:21.833Z,18.6
2017-08-10T04:28:24.263Z,18.6
2017-08-10T04:29:26.707Z,18.6
2017-08-10T04:30:29.163Z,18.6
2017-08-10T04:31:31.614Z,18.6
2017-08-10T04:32:34.743Z,18.6
2017-08-10T04:33:37.524Z,18.7
2017-08-10T04:34:39.966Z,18.7
2017-08-10T04:35:42.760Z,18.7
2017-08-10T04:36:45.553Z,18.7
2017-08-10T04:37:48.005Z,18.8
2017-08-10T04:38:50.454Z,18.8
2017-08-10T04:39:53.260Z,18.9
2017-08-10T04:40:55.696Z,18.9
2017-08-10T04:41:58.507Z,18.9
2017-08-10T04:43:00.939Z,18.9
2017-08-10T04:44:03.385Z,18.9
2017-08-10T04:45:06.862Z,18.9
2017-08-10T04:46:09.666Z,18.9
2017-08-10T04:47:12.121Z,19
2017-08-10T04:48:14.581Z,19
2017-08-10T04:49:17.706Z,19
2017-08-10T04:50:20.154Z,19.1
2017-08-10T04:51:22.597Z,19.1
2017-08-10T04:52:25.058Z,19.1
2017-08-10T04:53:27.532Z,19.2
2017-08-10T04:54:29.974Z,19.2
2017-08-10T04:55:32.771Z,19.2
2017-08-10T04:56:35.221Z,19.3
2017-08-10T04:57:38.368Z,19.3
2017-08-10T04:58:40.815Z,19.4
2017-08-10T04:59:43.257Z,19.4
2017-08-10T05:00:46.055Z,19.5
2017-08-10T05:01:48.546Z,19.5
2017-08-10T05:02:50.988Z,19.6
2017-08-10T05:03:53.770Z,19.6
2017-08-10T05:04:56.569Z,19.6
2017-08-10T05:05:59.015Z,19.7
2017-08-10T05:07:01.813Z,19.7
2017-08-10T05:08:04.599Z,19.7
2017-08-10T05:09:07.045Z,19.6
2017-08-10T05:10:09.514Z,19.6
2017-08-10T05:11:12.310Z,19.7
2017-08-10T05:12:15.113Z,19.7
2017-08-10T05:13:17.571Z,19.8
2017-08-10T05:14:20.358Z,19.8
2017-08-10T05:15:22.817Z,19.8
2017-08-10T05:16:25.623Z,19.8
2017-08-10T05:17:28.083Z,19.9
2017-08-10T05:18:30.580Z,19.9
2017-08-10T05:19:33.068Z,19.9
2017-08-10T05:20:35.850Z,19.9
2017-08-10T05:21:38.323Z,19.9
2017-08-10T05:22:40.784Z,20
2017-08-10T05:23:43.237Z,19.9
2017-08-10T05:24:45.686Z,20
2017-08-10T05:25:48.818Z,20
2017-08-10T05:26:51.276Z,20
2017-08-10T05:27:53.741Z,20
2017-08-10T05:28:56.196Z,20
2017-08-10T05:29:58.645Z,20.1
2017-08-10T05:31:01.437Z,20.1
2017-08-10T05:32:04.223Z,20.2
2017-08-10T05:33:06.684Z,20.2
2017-08-10T05:34:09.137Z,20.3
2017-08-10T05:35:11.601Z,20.3
2017-08-10T05:36:14.721Z,20.3
2017-08-10T05:37:17.515Z,20.4
2017-08-10T05:38:19.965Z,20.4
2017-08-10T05:39:22.782Z,20.5
2017-08-10T05:40:25.219Z,20.5
2017-08-10T05:41:27.700Z,20.5
2017-08-10T05:42:30.218Z,20.5
2017-08-10T05:43:32.665Z,20.5
2017-08-10T05:44:35.785Z,20.6
2017-08-10T05:45:38.581Z,20.6
2017-08-10T05:46:41.039Z,20.6
2017-08-10T05:47:43.519Z,20.7
2017-08-10T05:48:46.313Z,20.7
2017-08-10T05:49:49.101Z,20.7
2017-08-10T05:50:51.555Z,20.7
2017-08-10T05:51:54.006Z,20.7
2017-08-10T05:52:56.811Z,20.7
2017-08-10T05:53:59.590Z,20.8
2017-08-10T05:55:02.382Z,20.7
2017-08-10T05:56:05.523Z,20.7
2017-08-10T05:57:08.314Z,20.7
2017-08-10T05:58:11.121Z,20.7
2017-08-10T05:59:13.571Z,20.6
2017-08-10T06:00:16.349Z,20.6
2017-08-10T06:01:19.155Z,20.6
2017-08-10T06:02:21.941Z,20.6
2017-08-10T06:03:24.388Z,20.6
2017-08-10T06:04:27.506Z,20.6
2017-08-10T06:05:30.290Z,20.6
2017-08-10T06:06:33.087Z,20.7
2017-08-10T06:07:35.539Z,20.7
2017-08-10T06:08:38.320Z,20.7
2017-08-10T06:09:40.767Z,20.7
2017-08-10T06:10:43.554Z,20.8
2017-08-10T06:11:46.006Z,20.8
2017-08-10T06:12:48.458Z,20.8
2017-08-10T06:13:50.912Z,20.8
2017-08-10T06:14:53.360Z,20.9
2017-08-10T06:15:55.824Z,20.9
2017-08-10T06:16:58.615Z,20.9
2017-08-10T06:18:01.063Z,21
2017-08-10T06:19:03.543Z,21
2017-08-10T06:20:06.002Z,21.1
2017-08-10T06:21:08.461Z,21.1
2017-08-10T06:22:10.904Z,21.1
2017-08-10T06:23:13.356Z,21.2
2017-08-10T06:24:16.171Z,21.2
2017-08-10T06:25:18.619Z,21.2
2017-08-10T06:26:21.410Z,21.2
2017-08-10T06:27:23.876Z,21.3
2017-08-10T06:28:26.348Z,21.3
2017-08-10T06:29:28.825Z,21.3
2017-08-10T06:30:31.271Z,21.4
2017-08-10T06:31:34.065Z,21.4
2017-08-10T06:32:36.869Z,21.4
2017-08-10T06:33:39.651Z,21.5
2017-08-10T06:34:42.116Z,21.5
2017-08-10T06:35:44.941Z,21.5
2017-08-10T06:36:47.396Z,21.6
2017-08-10T06:37:49.848Z,21.6
2017-08-10T06:38:53.002Z,21.7
2017-08-10T06:39:55.451Z,21.7
2017-08-10T06:40:57.914Z,21.8
2017-08-10T06:42:01.048Z,21.8
2017-08-10T06:43:03.836Z,21.8
2017-08-10T06:44:06.973Z,21.8
2017-08-10T06:45:09.426Z,21.9
2017-08-10T06:46:11.881Z,21.9
2017-08-10T06:47:15.013Z,21.9
2017-08-10T06:48:17.474Z,21.9
2017-08-10T06:49:19.932Z,21.9
2017-08-10T06:50:22.436Z,22
2017-08-10T06:51:24.898Z,22
2017-08-10T06:52:27.350Z,22
2017-08-10T06:53:29.801Z,22.1
2017-08-10T06:54:32.596Z,22.1
2017-08-10T06:55:35.046Z,22.2
2017-08-10T06:56:37.529Z,22.2
2017-08-10T06:57:39.970Z,22.2
2017-08-10T06:58:42.762Z,22.3
2017-08-10T06:59:45.213Z,22.3
2017-08-10T07:00:47.671Z,22.3
2017-08-10T07:01:50.127Z,22.3
2017-08-10T07:02:53.265Z,22.4
2017-08-10T07:03:56.062Z,22.4
2017-08-10T07:04:58.521Z,22.4
2017-08-10T07:06:00.973Z,22.5
2017-08-10T07:07:03.442Z,22.6
2017-08-10T07:08:06.896Z,22.6
2017-08-10T07:09:09.359Z,22.7
2017-08-10T07:10:14.693Z,22.7
2017-08-10T07:11:23.426Z,22.8
2017-08-10T07:12:34.497Z,22.9
2017-08-10T07:13:44.766Z,22.9
2017-08-10T07:14:54.678Z,22.9
2017-08-10T07:16:04.637Z,23
2017-08-10T07:17:15.428Z,23.1
2017-08-10T07:18:25.814Z,23.2
2017-08-10T07:19:36.857Z,23.2
2017-08-10T07:20:46.253Z,23.3
2017-08-10T07:21:56.662Z,23.4
2017-08-10T07:23:08.219Z,23.4
2017-08-10T07:24:18.013Z,23.4
2017-08-10T07:25:30.310Z,23.5
2017-08-10T07:26:40.938Z,23.5
2017-08-10T07:27:52.173Z,23.5
2017-08-10T07:29:02.026Z,23.5
2017-08-10T07:30:13.683Z,23.5
2017-08-10T07:31:24.971Z,23.5
2017-08-10T07:32:36.953Z,23.5
2017-08-10T07:33:48.950Z,23.5
2017-08-10T07:34:59.699Z,23.5
2017-08-10T07:36:07.353Z,23.5
2017-08-10T07:37:16.457Z,23.5
2017-08-10T07:38:26.986Z,23.5
2017-08-10T07:39:37.863Z,23.6
2017-08-10T07:40:46.014Z,23.6
2017-08-10T07:41:50.123Z,23.7
2017-08-10T07:42:53.253Z,23.7
2017-08-10T07:43:57.185Z,23.8
2017-08-10T07:45:02.873Z,23.9
2017-08-10T07:46:06.074Z,24
2017-08-10T07:47:10.336Z,24.1
2017-08-10T07:48:13.041Z,24.1
2017-08-10T07:49:16.098Z,24.2
2017-08-10T07:50:18.745Z,24.3
2017-08-10T07:51:22.140Z,24.3
2017-08-10T07:52:24.708Z,24.4
2017-08-10T07:53:27.168Z,24.4
2017-08-10T07:54:29.978Z,24.5
2017-08-10T07:55:32.787Z,24.5
2017-08-10T07:56:35.262Z,24.6
2017-08-10T07:57:37.732Z,24.6
2017-08-10T07:58:40.577Z,24.7
2017-08-10T07:59:43.133Z,24.7
2017-08-10T08:00:45.738Z,24.7
2017-08-10T08:01:49.053Z,24.7
2017-08-10T08:02:51.501Z,24.8
2017-08-10T08:03:53.979Z,24.8
2017-08-10T08:04:57.117Z,24.9
2017-08-10T08:05:59.583Z,24.9
2017-08-10T08:07:02.388Z,24.9
2017-08-10T08:08:04.841Z,24.9
2017-08-10T08:09:07.685Z,25
2017-08-10T08:10:10.148Z,25
2017-08-10T08:11:12.605Z,25
2017-08-10T08:12:15.066Z,25
2017-08-10T08:13:17.529Z,25
2017-08-10T08:14:20.030Z,25.1
2017-08-10T08:15:22.495Z,25.1
2017-08-10T08:16:24.942Z,25.2
2017-08-10T08:17:27.401Z,25.3
2017-08-10T08:18:30.207Z,25.3
2017-08-10T08:19:32.665Z,25.3
2017-08-10T08:20:35.125Z,25.4
2017-08-10T08:21:37.587Z,25.4
2017-08-10T08:22:40.055Z,25.5
2017-08-10T08:23:43.186Z,25.5
2017-08-10T08:24:45.985Z,25.5
2017-08-10T08:25:48.776Z,25.6
2017-08-10T08:26:51.574Z,25.6
2017-08-10T08:27:54.026Z,25.7
2017-08-10T08:28:56.482Z,25.7
2017-08-10T08:29:59.272Z,25.7
2017-08-10T08:31:01.727Z,25.7
2017-08-10T08:32:04.855Z,25.7
2017-08-10T08:33:07.318Z,25.8
2017-08-10T08:34:09.774Z,25.8
2017-08-10T08:35:12.231Z,25.8
2017-08-10T08:36:14.702Z,25.8
2017-08-10T08:37:17.500Z,25.8
2017-08-10T08:38:19.997Z,25.8
2017-08-10T08:39:23.133Z,25.7
2017-08-10T08:40:25.941Z,25.8
2017-08-10T08:41:28.761Z,25.7
2017-08-10T08:42:31.922Z,25.7
2017-08-10T08:43:34.382Z,25.7
2017-08-10T08:44:36.860Z,25.7
2017-08-10T08:45:39.662Z,25.7
2017-08-10T08:46:42.144Z,25.7
2017-08-10T08:47:44.609Z,25.7
2017-08-10T08:48:47.073Z,25.7
2017-08-10T08:49:49.857Z,25.6
2017-08-10T08:50:52.332Z,25.6
2017-08-10T08:51:54.802Z,25.6
2017-08-10T08:52:57.253Z,25.6
2017-08-10T08:53:59.713Z,25.6
2017-08-10T08:55:02.877Z,25.6
2017-08-10T08:56:05.688Z,25.6
2017-08-10T08:57:08.151Z,25.6
2017-08-10T08:58:10.973Z,25.6
2017-08-10T08:59:13.766Z,25.6
2017-08-10T09:00:16.230Z,25.6
2017-08-10T09:01:18.690Z,25.6
2017-08-10T09:02:21.154Z,25.6
2017-08-10T09:03:24.301Z,25.6
2017-08-10T09:04:26.773Z,25.6
2017-08-10T09:05:29.643Z,25.6
2017-08-10T09:06:32.104Z,25.6
2017-08-10T09:07:34.908Z,25.6
2017-08-10T09:08:37.352Z,25.5
2017-08-10T09:09:39.815Z,25.5
2017-08-10T09:10:42.631Z,25.5
2017-08-10T09:11:45.095Z,25.4
2017-08-10T09:12:47.559Z,25.4
2017-08-10T09:13:50.026Z,25.4
2017-08-10T09:14:52.499Z,25.4
2017-08-10T09:15:55.328Z,25.4
2017-08-10T09:16:57.804Z,25.4
2017-08-10T09:18:00.257Z,25.3
2017-08-10T09:19:03.056Z,25.3
2017-08-10T09:20:05.961Z,25.3
2017-08-10T09:21:08.415Z,25.3
2017-08-10T09:22:10.886Z,25.3
2017-08-10T09:23:13.349Z,25.3
2017-08-10T09:24:16.161Z,25.3
2017-08-10T09:25:19.645Z,25.3
2017-08-10T09:26:22.441Z,25.3
2017-08-10T09:27:24.897Z,25.3
2017-08-10T09:28:27.363Z,25.3
2017-08-10T09:29:29.816Z,25.3
2017-08-10T09:30:32.600Z,25.2
2017-08-10T09:31:35.059Z,25.2
2017-08-10T09:32:37.532Z,25.2
2017-08-10T09:33:39.989Z,25.2
2017-08-10T09:34:42.437Z,25.2
2017-08-10T09:35:44.890Z,25.2
2017-08-10T09:36:47.346Z,25.2
2017-08-10T09:37:50.146Z,25.2
2017-08-10T09:38:52.623Z,25.1
2017-08-10T09:39:55.078Z,25.1
2017-08-10T09:40:57.888Z,25.1
2017-08-10T09:42:00.701Z,25.1
2017-08-10T09:43:03.504Z,25
2017-08-10T09:44:05.965Z,25
2017-08-10T09:45:09.115Z,25
2017-08-10T09:46:11.576Z,25
2017-08-10T09:47:14.709Z,25
2017-08-10T09:48:17.855Z,25
2017-08-10T09:49:20.304Z,25
2017-08-10T09:50:22.772Z,25
2017-08-10T09:51:25.230Z,25
2017-08-10T09:52:27.726Z,25
2017-08-10T09:53:30.513Z,25
2017-08-10T09:54:32.976Z,25.1
2017-08-10T09:55:35.444Z,25.1
2017-08-10T09:56:37.903Z,25.1
2017-08-10T09:57:40.366Z,25.1
2017-08-10T09:58:42.828Z,25.1
2017-08-10T09:59:45.290Z,25.1
2017-08-10T10:00:48.431Z,25.2
2017-08-10T10:01:51.240Z,25.3
2017-08-10T10:02:54.034Z,25.3
2017-08-10T10:03:56.514Z,25.3
2017-08-10T10:04:59.328Z,25.4
2017-08-10T10:06:02.132Z,25.5
2017-08-10T10:07:04.602Z,25.6
2017-08-10T10:08:07.058Z,25.6
2017-08-10T10:09:09.523Z,25.7
2017-08-10T10:10:11.992Z,25.8
2017-08-10T10:11:14.790Z,26
2017-08-10T10:12:18.234Z,26.1
2017-08-10T10:13:21.361Z,26.2
2017-08-10T10:14:24.161Z,26.4
2017-08-10T10:15:26.636Z,26.5
2017-08-10T10:16:29.130Z,26.5
2017-08-10T10:17:32.644Z,26.7
2017-08-10T10:18:35.103Z,26.8
2017-08-10T10:19:37.585Z,26.8
2017-08-10T10:20:40.053Z,26.9
2017-08-10T10:21:42.858Z,26.9
2017-08-10T10:22:45.657Z,26.8
2017-08-10T10:23:48.107Z,26.8
2017-08-10T10:24:50.575Z,26.8
2017-08-10T10:25:53.033Z,26.8
2017-08-10T10:26:55.829Z,26.8
2017-08-10T10:27:58.304Z,26.7
2017-08-10T10:29:00.789Z,26.7
2017-08-10T10:30:03.589Z,26.7
2017-08-10T10:31:06.753Z,26.7
2017-08-10T10:32:09.550Z,26.6
2017-08-10T10:33:12.016Z,26.6
2017-08-10T10:34:14.491Z,26.6
2017-08-10T10:35:16.959Z,26.6
2017-08-10T10:36:19.439Z,26.6
2017-08-10T10:37:21.888Z,26.6
2017-08-10T10:38:24.688Z,26.6
2017-08-10T10:39:27.153Z,26.5
2017-08-10T10:40:29.948Z,26.6
2017-08-10T10:41:32.750Z,26.6
2017-08-10T10:42:35.211Z,26.6
2017-08-10T10:43:38.010Z,26.6
2017-08-10T10:44:40.467Z,26.5
2017-08-10T10:45:42.937Z,26.5
2017-08-10T10:46:45.737Z,26.5
2017-08-10T10:47:48.592Z,26.5
2017-08-10T10:48:51.404Z,26.5
2017-08-10T10:49:54.197Z,26.6
2017-08-10T10:50:56.997Z,26.7
2017-08-10T10:51:59.457Z,26.7
2017-08-10T10:53:01.946Z,26.8
2017-08-10T10:54:04.738Z,26.9
2017-08-10T10:55:07.202Z,27
2017-08-10T10:56:10.012Z,27.2
2017-08-10T10:57:12.474Z,27.3
2017-08-10T10:58:15.279Z,27.4
2017-08-10T10:59:17.749Z,27.5
2017-08-10T11:00:20.910Z,27.7
2017-08-10T11:01:23.719Z,27.7
2017-08-10T11:02:26.535Z,27.8
2017-08-10T11:03:29.347Z,27.8
2017-08-10T11:04:31.824Z,28
2017-08-10T11:05:34.629Z,28.1
2017-08-10T11:06:37.159Z,28.3
2017-08-10T11:07:40.328Z,28.4
2017-08-10T11:08:43.152Z,28.6
2017-08-10T11:09:45.952Z,28.8
2017-08-10T11:10:48.441Z,29
2017-08-10T11:11:51.254Z,29.2
2017-08-10T11:12:53.774Z,29.4
2017-08-10T11:13:56.279Z,29.7
2017-08-10T11:14:59.321Z,29.9
2017-08-10T11:16:01.819Z,30.2
2017-08-10T11:17:04.655Z,30.4
2017-08-10T11:18:07.532Z,30.6
2017-08-10T11:19:10.391Z,30.7
2017-08-10T11:20:12.889Z,30.8
2017-08-10T11:21:15.349Z,30.8
2017-08-10T11:22:17.812Z,30.9
2017-08-10T11:23:20.275Z,31.1
2017-08-10T11:24:23.103Z,31.3
2017-08-10T11:25:25.593Z,31.4
2017-08-10T11:26:28.094Z,31.6
2017-08-10T11:27:30.692Z,31.8
2017-08-10T11:28:33.215Z,32
2017-08-10T11:29:35.702Z,32.2
2017-08-10T11:30:38.183Z,32.3
2017-08-10T11:31:40.997Z,32.4
2017-08-10T11:32:43.466Z,32.6
2017-08-10T11:33:46.274Z,32.7
2017-08-10T11:34:48.792Z,32.9
2017-08-10T11:35:51.611Z,33
2017-08-10T11:36:54.152Z,33.1
2017-08-10T11:37:56.701Z,33.3
2017-08-10T11:39:00.182Z,33.4
2017-08-10T11:40:02.675Z,33.5
2017-08-10T11:41:05.509Z,33.5
2017-08-10T11:42:08.019Z,33.6
2017-08-10T11:43:10.844Z,33.6
2017-08-10T11:44:16.112Z,33.6
2017-08-10T11:45:25.670Z,33.6
2017-08-10T11:46:34.792Z,33.6
2017-08-10T11:47:42.903Z,33.7
2017-08-10T11:48:50.978Z,33.8
2017-08-10T11:49:59.277Z,33.9
2017-08-10T11:51:08.893Z,34
2017-08-10T11:52:18.256Z,34.1
2017-08-10T11:53:27.586Z,34.1
2017-08-10T11:54:37.554Z,34.2
2017-08-10T11:55:46.405Z,34.2
2017-08-10T11:56:54.878Z,34.2
2017-08-10T11:58:03.752Z,34.1
2017-08-10T11:59:12.979Z,34.1
2017-08-10T12:00:23.471Z,34.1
2017-08-10T12:01:32.200Z,34.2
2017-08-10T12:02:42.232Z,34.2
2017-08-10T12:03:52.503Z,34.3
2017-08-10T12:05:01.731Z,34.5
2017-08-10T12:06:11.451Z,34.6
2017-08-10T12:07:21.597Z,34.7
2017-08-10T12:08:31.319Z,34.7
2017-08-10T12:09:39.919Z,34.8
2017-08-10T12:10:48.096Z,34.9
2017-08-10T12:11:57.719Z,34.9
2017-08-10T12:13:04.635Z,34.9
2017-08-10T12:14:12.404Z,34.9
2017-08-10T12:15:19.603Z,34.9
2017-08-10T12:16:24.580Z,34.9
2017-08-10T12:17:33.274Z,34.8
2017-08-10T12:18:43.585Z,34.8
2017-08-10T12:19:54.187Z,34.7
2017-08-10T12:21:06.086Z,34.7
2017-08-10T12:22:15.791Z,34.7
2017-08-10T12:23:23.736Z,34.7
2017-08-10T12:24:26.910Z,34.8
2017-08-10T12:25:29.383Z,34.8
2017-08-10T12:26:31.855Z,34.9
2017-08-10T12:27:34.331Z,34.8
2017-08-10T12:28:36.802Z,34.8
2017-08-10T12:29:39.279Z,34.6
2017-08-10T12:30:41.792Z,34.4
2017-08-10T12:31:44.947Z,34.2
2017-08-10T12:32:47.741Z,34
2017-08-10T12:33:50.229Z,33.8
2017-08-10T12:34:52.701Z,33.7
2017-08-10T12:35:55.169Z,33.6
2017-08-10T12:36:57.635Z,33.4
2017-08-10T12:38:00.115Z,33.3
2017-08-10T12:39:02.958Z,33.2
2017-08-10T12:40:05.461Z,33.2
2017-08-10T12:41:08.304Z,33.2
2017-08-10T12:42:10.777Z,33.2
2017-08-10T12:43:14.604Z,33.3
2017-08-10T12:44:17.408Z,33.2
2017-08-10T12:45:19.887Z,33.2
2017-08-10T12:46:22.698Z,33.1
2017-08-10T12:47:25.502Z,33.1
2017-08-10T12:48:27.988Z,33
2017-08-10T12:49:31.166Z,32.9
2017-08-10T12:50:33.998Z,32.9
2017-08-10T12:51:36.834Z,32.8
2017-08-10T12:52:39.302Z,32.7
2017-08-10T12:53:41.782Z,32.6
2017-08-10T12:54:44.267Z,32.5
2017-08-10T12:55:47.437Z,32.4
2017-08-10T12:56:49.930Z,32.4
2017-08-10T12:57:52.404Z,32.3
2017-08-10T12:58:57.947Z,32.3
2017-08-10T13:00:06.435Z,32.3
2017-08-10T13:01:12.516Z,32.3
2017-08-10T13:02:16.330Z,32.4
2017-08-10T13:03:18.833Z,32.5
2017-08-10T13:04:21.651Z,32.7
2017-08-10T13:05:24.137Z,32.8
2017-08-10T13:06:26.623Z,32.8
2017-08-10T13:07:29.091Z,32.9
2017-08-10T13:08:31.574Z,33
2017-08-10T13:09:34.402Z,33
2017-08-10T13:10:36.883Z,33.1
2017-08-10T13:11:39.372Z,33.2
2017-08-10T13:12:42.196Z,33.2
2017-08-10T13:13:45.685Z,33.3
2017-08-10T13:14:48.552Z,33.4
2017-08-10T13:15:51.069Z,33.4
2017-08-10T13:16:53.560Z,33.6
2017-08-10T13:17:56.382Z,33.7
2017-08-10T13:18:59.185Z,33.8
2017-08-10T13:20:02.007Z,33.9
2017-08-10T13:21:05.178Z,34
2017-08-10T13:22:07.669Z,34.1
2017-08-10T13:23:10.228Z,34.2
2017-08-10T13:24:15.815Z,34.3
2017-08-10T13:25:24.707Z,34.5
2017-08-10T13:26:33.422Z,34.6
2017-08-10T13:27:42.031Z,34.7
2017-08-10T13:28:49.280Z,34.9
2017-08-10T13:29:58.632Z,34.9
2017-08-10T13:31:05.129Z,35.1
2017-08-10T13:32:07.612Z,35.1
2017-08-10T13:33:10.444Z,35.2
2017-08-10T13:34:13.632Z,35.2
2017-08-10T13:35:16.185Z,35.3
2017-08-10T13:36:18.683Z,35.4
2017-08-10T13:37:21.508Z,35.4
2017-08-10T13:38:24.066Z,35.5
2017-08-10T13:39:26.570Z,35.5
2017-08-10T13:40:29.756Z,35.5
2017-08-10T13:41:32.567Z,35.6
2017-08-10T13:42:35.056Z,35.6
2017-08-10T13:43:37.901Z,35.7
2017-08-10T13:44:40.420Z,35.8
2017-08-10T13:45:42.941Z,35.9
2017-08-10T13:46:45.797Z,36
2017-08-10T13:47:48.320Z,36.1
2017-08-10T13:48:50.812Z,36.1
2017-08-10T13:49:53.634Z,36.2
2017-08-10T13:50:56.163Z,36.2
2017-08-10T13:51:59.518Z,36.3
2017-08-10T13:53:02.383Z,36.3
2017-08-10T13:54:05.279Z,36.4
2017-08-10T13:55:07.755Z,36.5
2017-08-10T13:56:10.251Z,36.6
2017-08-10T13:57:12.751Z,36.7
2017-08-10T13:58:15.272Z,36.8
2017-08-10T13:59:17.760Z,36.9
2017-08-10T14:00:22.008Z,37
2017-08-10T14:01:27.271Z,37.2
2017-08-10T14:02:35.398Z,37.3
2017-08-10T14:03:44.279Z,37.4
2017-08-10T14:04:53.352Z,37.5
2017-08-10T14:06:00.711Z,37.6